Aviation Digital Data Service (ADDS)

Output produced by TAFs form (0832 UTC 29 November 2014)
found at http://aviationweather.gov/adds/tafs/
 
KHOB 290521Z 2906/3006 23006KT P6SM SKC 
     FM291800 22010KT P6SM SKC